sensor_id;sensor_type;location;lat;lon;timestamp;P1;durP1;ratioP1;P2;durP2;ratioP2
71639;SDS011;60912;48.968;10.124;2022-10-22T00:00:07;10.67;;;3.47;;
71639;SDS011;60912;48.968;10.124;2022-10-22T00:02:33;7.22;;;3.55;;
71639;SDS011;60912;48.968;10.124;2022-10-22T00:04:59;8.47;;;3.93;;
71639;SDS011;60912;48.968;10.124;2022-10-22T00:07:25;10.35;;;4.05;;
71639;SDS011;60912;48.968;10.124;2022-10-22T00:09:50;8.23;;;3.67;;
71639;SDS011;60912;48.968;10.124;2022-10-22T00:12:16;6.13;;;2.83;;
71639;SDS011;60912;48.968;10.124;2022-10-22T00:14:41;12.50;;;3.08;;
71639;SDS011;60912;48.968;10.124;2022-10-22T00:17:07;7.63;;;3.20;;
71639;SDS011;60912;48.968;10.124;2022-10-22T00:19:32;7.47;;;3.00;;
71639;SDS011;60912;48.968;10.124;2022-10-22T00:21:58;8.07;;;2.77;;
71639;SDS011;60912;48.968;10.124;2022-10-22T00:24:23;4.60;;;2.35;;
71639;SDS011;60912;48.968;10.124;2022-10-22T00:26:49;4.43;;;2.20;;
71639;SDS011;60912;48.968;10.124;2022-10-22T00:29:14;7.78;;;2.33;;
71639;SDS011;60912;48.968;10.124;2022-10-22T00:31:43;7.10;;;2.20;;
71639;SDS011;60912;48.968;10.124;2022-10-22T00:34:13;7.77;;;2.00;;
71639;SDS011;60912;48.968;10.124;2022-10-22T00:36:44;7.82;;;1.92;;
71639;SDS011;60912;48.968;10.124;2022-10-22T00:39:09;4.32;;;1.92;;
71639;SDS011;60912;48.968;10.124;2022-10-22T00:41:36;5.30;;;1.70;;
71639;SDS011;60912;48.968;10.124;2022-10-22T00:44:04;8.47;;;2.20;;
71639;SDS011;60912;48.968;10.124;2022-10-22T00:46:30;7.85;;;1.80;;
71639;SDS011;60912;48.968;10.124;2022-10-22T00:48:55;6.03;;;2.00;;
71639;SDS011;60912;48.968;10.124;2022-10-22T00:51:24;4.07;;;1.55;;
71639;SDS011;60912;48.968;10.124;2022-10-22T00:53:54;4.97;;;1.92;;
71639;SDS011;60912;48.968;10.124;2022-10-22T00:56:24;6.38;;;2.05;;
71639;SDS011;60912;48.968;10.124;2022-10-22T00:58:54;5.63;;;1.70;;
71639;SDS011;60912;48.968;10.124;2022-10-22T01:01:23;5.57;;;1.70;;
71639;SDS011;60912;48.968;10.124;2022-10-22T01:03:51;5.03;;;1.48;;
71639;SDS011;60912;48.968;10.124;2022-10-22T01:06:26;3.38;;;1.52;;
71639;SDS011;60912;48.968;10.124;2022-10-22T01:11:56;5.60;;;1.33;;
71639;SDS011;60912;48.968;10.124;2022-10-22T01:17:08;4.85;;;1.65;;
71639;SDS011;60912;48.968;10.124;2022-10-22T01:30:11;4.97;;;1.60;;
71639;SDS011;60912;48.968;10.124;2022-10-22T01:32:40;4.55;;;1.60;;
71639;SDS011;60912;48.968;10.124;2022-10-22T01:35:10;5.55;;;1.52;;
71639;SDS011;60912;48.968;10.124;2022-10-22T01:37:41;4.70;;;1.48;;
71639;SDS011;60912;48.968;10.124;2022-10-22T01:40:10;7.83;;;1.63;;
71639;SDS011;60912;48.968;10.124;2022-10-22T01:42:37;6.93;;;1.52;;
71639;SDS011;60912;48.968;10.124;2022-10-22T01:45:13;4.07;;;1.40;;
71639;SDS011;60912;48.968;10.124;2022-10-22T02:06:44;6.30;;;2.80;;
71639;SDS011;60912;48.968;10.124;2022-10-22T02:09:12;4.63;;;2.30;;
71639;SDS011;60912;48.968;10.124;2022-10-22T02:11:41;6.05;;;2.40;;
71639;SDS011;60912;48.968;10.124;2022-10-22T02:14:09;5.43;;;2.90;;
71639;SDS011;60912;48.968;10.124;2022-10-22T02:16:41;5.50;;;3.00;;
71639;SDS011;60912;48.968;10.124;2022-10-22T02:19:34;6.00;;;3.03;;
71639;SDS011;60912;48.968;10.124;2022-10-22T02:21:59;5.13;;;3.40;;
71639;SDS011;60912;48.968;10.124;2022-10-22T02:24:25;5.60;;;2.72;;
71639;SDS011;60912;48.968;10.124;2022-10-22T02:26:53;5.50;;;2.50;;
71639;SDS011;60912;48.968;10.124;2022-10-22T02:29:29;5.07;;;2.43;;
71639;SDS011;60912;48.968;10.124;2022-10-22T02:32:02;5.38;;;2.47;;
71639;SDS011;60912;48.968;10.124;2022-10-22T02:34:31;6.25;;;2.30;;
71639;SDS011;60912;48.968;10.124;2022-10-22T02:36:57;3.70;;;1.92;;
71639;SDS011;60912;48.968;10.124;2022-10-22T02:39:25;4.13;;;1.80;;
71639;SDS011;60912;48.968;10.124;2022-10-22T02:41:50;3.27;;;1.70;;
71639;SDS011;60912;48.968;10.124;2022-10-22T02:44:18;7.37;;;2.10;;
71639;SDS011;60912;48.968;10.124;2022-10-22T02:46:45;4.90;;;1.67;;
71639;SDS011;60912;48.968;10.124;2022-10-22T02:49:10;7.50;;;1.50;;
71639;SDS011;60912;48.968;10.124;2022-10-22T02:51:35;3.53;;;1.50;;
71639;SDS011;60912;48.968;10.124;2022-10-22T02:54:01;3.30;;;1.42;;
71639;SDS011;60912;48.968;10.124;2022-10-22T02:56:26;3.63;;;1.60;;
71639;SDS011;60912;48.968;10.124;2022-10-22T02:58:51;4.47;;;1.40;;
71639;SDS011;60912;48.968;10.124;2022-10-22T03:01:17;3.73;;;1.60;;
71639;SDS011;60912;48.968;10.124;2022-10-22T03:03:42;4.17;;;1.20;;
71639;SDS011;60912;48.968;10.124;2022-10-22T03:06:07;4.20;;;1.30;;
71639;SDS011;60912;48.968;10.124;2022-10-22T03:08:33;4.43;;;1.30;;
71639;SDS011;60912;48.968;10.124;2022-10-22T03:10:58;4.50;;;1.13;;
71639;SDS011;60912;48.968;10.124;2022-10-22T03:13:24;3.33;;;1.20;;
71639;SDS011;60912;48.968;10.124;2022-10-22T03:15:49;5.50;;;1.20;;
71639;SDS011;60912;48.968;10.124;2022-10-22T03:18:15;3.00;;;0.82;;
71639;SDS011;60912;48.968;10.124;2022-10-22T03:20:41;2.55;;;0.80;;
71639;SDS011;60912;48.968;10.124;2022-10-22T03:23:06;2.77;;;0.90;;
71639;SDS011;60912;48.968;10.124;2022-10-22T03:25:32;1.57;;;0.70;;
71639;SDS011;60912;48.968;10.124;2022-10-22T03:28:00;4.70;;;1.10;;
71639;SDS011;60912;48.968;10.124;2022-10-22T03:30:30;1.98;;;0.80;;
71639;SDS011;60912;48.968;10.124;2022-10-22T03:32:56;2.57;;;0.67;;
71639;SDS011;60912;48.968;10.124;2022-10-22T03:35:21;2.27;;;0.70;;
71639;SDS011;60912;48.968;10.124;2022-10-22T03:37:47;2.97;;;0.70;;
71639;SDS011;60912;48.968;10.124;2022-10-22T03:40:13;2.53;;;0.60;;
71639;SDS011;60912;48.968;10.124;2022-10-22T03:42:39;3.38;;;0.50;;
71639;SDS011;60912;48.968;10.124;2022-10-22T03:45:05;2.70;;;0.60;;
71639;SDS011;60912;48.968;10.124;2022-10-22T03:47:32;2.75;;;0.68;;
71639;SDS011;60912;48.968;10.124;2022-10-22T03:49:57;1.95;;;0.55;;
71639;SDS011;60912;48.968;10.124;2022-10-22T03:52:22;2.83;;;0.67;;
71639;SDS011;60912;48.968;10.124;2022-10-22T03:54:48;2.97;;;1.10;;
71639;SDS011;60912;48.968;10.124;2022-10-22T03:57:13;2.43;;;0.57;;
71639;SDS011;60912;48.968;10.124;2022-10-22T03:59:40;2.97;;;0.60;;
71639;SDS011;60912;48.968;10.124;2022-10-22T04:02:07;1.80;;;0.65;;
71639;SDS011;60912;48.968;10.124;2022-10-22T04:04:34;5.67;;;0.80;;
71639;SDS011;60912;48.968;10.124;2022-10-22T04:06:59;2.40;;;0.70;;
71639;SDS011;60912;48.968;10.124;2022-10-22T04:09:25;3.23;;;0.80;;
71639;SDS011;60912;48.968;10.124;2022-10-22T04:11:50;4.60;;;0.70;;
71639;SDS011;60912;48.968;10.124;2022-10-22T04:14:16;2.83;;;0.90;;
71639;SDS011;60912;48.968;10.124;2022-10-22T04:16:41;3.03;;;0.70;;
71639;SDS011;60912;48.968;10.124;2022-10-22T04:19:07;2.80;;;0.70;;
71639;SDS011;60912;48.968;10.124;2022-10-22T04:21:32;4.30;;;1.00;;
71639;SDS011;60912;48.968;10.124;2022-10-22T04:23:58;3.13;;;0.90;;
71639;SDS011;60912;48.968;10.124;2022-10-22T04:26:24;2.87;;;0.90;;
71639;SDS011;60912;48.968;10.124;2022-10-22T04:28:50;3.17;;;0.77;;
71639;SDS011;60912;48.968;10.124;2022-10-22T04:31:17;1.80;;;0.70;;
71639;SDS011;60912;48.968;10.124;2022-10-22T04:33:46;3.97;;;0.80;;
71639;SDS011;60912;48.968;10.124;2022-10-22T04:36:14;3.35;;;0.73;;
71639;SDS011;60912;48.968;10.124;2022-10-22T04:38:41;3.42;;;0.98;;
71639;SDS011;60912;48.968;10.124;2022-10-22T04:41:08;2.27;;;0.77;;
71639;SDS011;60912;48.968;10.124;2022-10-22T04:43:34;4.28;;;0.90;;
71639;SDS011;60912;48.968;10.124;2022-10-22T04:46:00;5.77;;;1.40;;
71639;SDS011;60912;48.968;10.124;2022-10-22T04:48:25;4.28;;;1.20;;
71639;SDS011;60912;48.968;10.124;2022-10-22T04:50:50;4.70;;;0.83;;
71639;SDS011;60912;48.968;10.124;2022-10-22T04:53:16;2.70;;;0.80;;
71639;SDS011;60912;48.968;10.124;2022-10-22T04:55:41;2.83;;;0.93;;
71639;SDS011;60912;48.968;10.124;2022-10-22T04:58:06;3.97;;;0.90;;
71639;SDS011;60912;48.968;10.124;2022-10-22T05:00:32;7.37;;;0.87;;
71639;SDS011;60912;48.968;10.124;2022-10-22T05:02:57;1.92;;;0.80;;
71639;SDS011;60912;48.968;10.124;2022-10-22T05:05:22;2.27;;;0.90;;
71639;SDS011;60912;48.968;10.124;2022-10-22T05:07:49;3.57;;;0.80;;
71639;SDS011;60912;48.968;10.124;2022-10-22T05:10:15;4.07;;;0.95;;
71639;SDS011;60912;48.968;10.124;2022-10-22T05:12:40;5.07;;;1.00;;
71639;SDS011;60912;48.968;10.124;2022-10-22T05:15:06;6.50;;;1.00;;
71639;SDS011;60912;48.968;10.124;2022-10-22T05:17:34;5.28;;;1.08;;
71639;SDS011;60912;48.968;10.124;2022-10-22T05:20:04;4.18;;;0.90;;
71639;SDS011;60912;48.968;10.124;2022-10-22T05:22:30;4.93;;;0.90;;
71639;SDS011;60912;48.968;10.124;2022-10-22T05:24:55;8.03;;;1.33;;
71639;SDS011;60912;48.968;10.124;2022-10-22T05:27:20;2.80;;;0.87;;
71639;SDS011;60912;48.968;10.124;2022-10-22T05:29:46;3.10;;;1.00;;
71639;SDS011;60912;48.968;10.124;2022-10-22T05:32:11;2.77;;;0.90;;
71639;SDS011;60912;48.968;10.124;2022-10-22T05:34:36;2.37;;;0.77;;
71639;SDS011;60912;48.968;10.124;2022-10-22T05:37:02;4.65;;;0.90;;
71639;SDS011;60912;48.968;10.124;2022-10-22T05:39:27;2.60;;;0.97;;
71639;SDS011;60912;48.968;10.124;2022-10-22T05:41:52;5.20;;;1.07;;
71639;SDS011;60912;48.968;10.124;2022-10-22T05:44:18;2.30;;;1.10;;
71639;SDS011;60912;48.968;10.124;2022-10-22T05:46:43;5.13;;;1.00;;
71639;SDS011;60912;48.968;10.124;2022-10-22T05:49:12;5.83;;;1.30;;
71639;SDS011;60912;48.968;10.124;2022-10-22T05:51:39;4.97;;;1.20;;
71639;SDS011;60912;48.968;10.124;2022-10-22T05:54:05;4.47;;;1.40;;
71639;SDS011;60912;48.968;10.124;2022-10-22T05:56:32;2.80;;;1.30;;
71639;SDS011;60912;48.968;10.124;2022-10-22T05:58:57;4.30;;;1.17;;
71639;SDS011;60912;48.968;10.124;2022-10-22T06:01:24;3.83;;;1.70;;
71639;SDS011;60912;48.968;10.124;2022-10-22T06:03:53;4.60;;;1.90;;
71639;SDS011;60912;48.968;10.124;2022-10-22T06:08:51;9.68;;;1.98;;
71639;SDS011;60912;48.968;10.124;2022-10-22T06:11:18;5.27;;;1.33;;
71639;SDS011;60912;48.968;10.124;2022-10-22T06:13:45;4.75;;;1.40;;
71639;SDS011;60912;48.968;10.124;2022-10-22T06:16:12;5.70;;;1.30;;
71639;SDS011;60912;48.968;10.124;2022-10-22T06:18:37;4.20;;;0.93;;
71639;SDS011;60912;48.968;10.124;2022-10-22T06:21:06;7.47;;;1.50;;
71639;SDS011;60912;48.968;10.124;2022-10-22T06:23:33;8.63;;;1.27;;
71639;SDS011;60912;48.968;10.124;2022-10-22T06:25:59;5.13;;;1.33;;
71639;SDS011;60912;48.968;10.124;2022-10-22T06:28:25;4.07;;;1.17;;
71639;SDS011;60912;48.968;10.124;2022-10-22T06:30:51;5.32;;;1.25;;
71639;SDS011;60912;48.968;10.124;2022-10-22T06:33:16;5.03;;;1.37;;
71639;SDS011;60912;48.968;10.124;2022-10-22T06:35:42;4.20;;;1.27;;
71639;SDS011;60912;48.968;10.124;2022-10-22T06:38:09;5.82;;;1.50;;
71639;SDS011;60912;48.968;10.124;2022-10-22T06:40:34;6.87;;;1.40;;
71639;SDS011;60912;48.968;10.124;2022-10-22T06:42:59;5.30;;;1.80;;
71639;SDS011;60912;48.968;10.124;2022-10-22T06:45:25;4.93;;;1.90;;
71639;SDS011;60912;48.968;10.124;2022-10-22T06:47:50;5.00;;;1.98;;
71639;SDS011;60912;48.968;10.124;2022-10-22T06:50:16;4.30;;;1.57;;
71639;SDS011;60912;48.968;10.124;2022-10-22T06:52:41;11.02;;;2.20;;
71639;SDS011;60912;48.968;10.124;2022-10-22T06:55:07;5.90;;;1.80;;
71639;SDS011;60912;48.968;10.124;2022-10-22T06:57:33;3.67;;;1.50;;
71639;SDS011;60912;48.968;10.124;2022-10-22T06:59:58;6.50;;;1.70;;
71639;SDS011;60912;48.968;10.124;2022-10-22T07:02:23;4.20;;;1.60;;
71639;SDS011;60912;48.968;10.124;2022-10-22T07:04:49;9.90;;;5.67;;
71639;SDS011;60912;48.968;10.124;2022-10-22T07:07:14;6.10;;;4.63;;
71639;SDS011;60912;48.968;10.124;2022-10-22T07:09:40;7.67;;;4.93;;
71639;SDS011;60912;48.968;10.124;2022-10-22T07:12:05;10.25;;;5.05;;
71639;SDS011;60912;48.968;10.124;2022-10-22T07:14:31;10.10;;;5.50;;
71639;SDS011;60912;48.968;10.124;2022-10-22T07:16:56;13.23;;;5.50;;
71639;SDS011;60912;48.968;10.124;2022-10-22T07:19:22;9.83;;;5.10;;
71639;SDS011;60912;48.968;10.124;2022-10-22T07:21:47;11.57;;;4.20;;
71639;SDS011;60912;48.968;10.124;2022-10-22T07:24:12;11.77;;;4.30;;
71639;SDS011;60912;48.968;10.124;2022-10-22T07:26:38;5.93;;;2.33;;
71639;SDS011;60912;48.968;10.124;2022-10-22T07:29:04;8.20;;;3.22;;
71639;SDS011;60912;48.968;10.124;2022-10-22T07:31:29;6.47;;;2.73;;
71639;SDS011;60912;48.968;10.124;2022-10-22T07:33:55;9.32;;;2.40;;
71639;SDS011;60912;48.968;10.124;2022-10-22T07:36:21;6.30;;;2.20;;
71639;SDS011;60912;48.968;10.124;2022-10-22T07:38:47;6.57;;;2.05;;
71639;SDS011;60912;48.968;10.124;2022-10-22T07:41:14;4.63;;;2.20;;
71639;SDS011;60912;48.968;10.124;2022-10-22T07:43:40;4.18;;;1.80;;
71639;SDS011;60912;48.968;10.124;2022-10-22T07:46:06;5.78;;;1.90;;
71639;SDS011;60912;48.968;10.124;2022-10-22T07:48:33;5.78;;;1.70;;
71639;SDS011;60912;48.968;10.124;2022-10-22T07:50:59;8.47;;;1.70;;
71639;SDS011;60912;48.968;10.124;2022-10-22T07:53:25;3.70;;;1.80;;
71639;SDS011;60912;48.968;10.124;2022-10-22T07:55:50;5.53;;;1.50;;
71639;SDS011;60912;48.968;10.124;2022-10-22T07:58:16;5.43;;;1.80;;
71639;SDS011;60912;48.968;10.124;2022-10-22T08:00:42;4.57;;;1.60;;
71639;SDS011;60912;48.968;10.124;2022-10-22T08:03:09;4.68;;;1.95;;
71639;SDS011;60912;48.968;10.124;2022-10-22T08:05:35;5.72;;;1.65;;
71639;SDS011;60912;48.968;10.124;2022-10-22T08:08:01;5.50;;;1.80;;
71639;SDS011;60912;48.968;10.124;2022-10-22T08:10:26;5.80;;;1.90;;
71639;SDS011;60912;48.968;10.124;2022-10-22T08:12:52;7.10;;;2.30;;
71639;SDS011;60912;48.968;10.124;2022-10-22T08:15:17;4.27;;;2.40;;
71639;SDS011;60912;48.968;10.124;2022-10-22T08:17:42;5.28;;;2.50;;
71639;SDS011;60912;48.968;10.124;2022-10-22T08:20:08;4.20;;;2.30;;
71639;SDS011;60912;48.968;10.124;2022-10-22T08:22:34;4.63;;;1.52;;
71639;SDS011;60912;48.968;10.124;2022-10-22T08:24:59;2.93;;;1.37;;
71639;SDS011;60912;48.968;10.124;2022-10-22T08:27:24;4.67;;;1.00;;
71639;SDS011;60912;48.968;10.124;2022-10-22T08:29:50;3.43;;;1.10;;
71639;SDS011;60912;48.968;10.124;2022-10-22T08:32:15;2.97;;;0.90;;
71639;SDS011;60912;48.968;10.124;2022-10-22T08:34:41;7.53;;;2.10;;
71639;SDS011;60912;48.968;10.124;2022-10-22T08:37:06;3.30;;;1.30;;
71639;SDS011;60912;48.968;10.124;2022-10-22T08:39:32;3.70;;;1.23;;
71639;SDS011;60912;48.968;10.124;2022-10-22T08:49:38;4.80;;;1.40;;
71639;SDS011;60912;48.968;10.124;2022-10-22T08:52:07;4.70;;;1.30;;
71639;SDS011;60912;48.968;10.124;2022-10-22T09:07:43;2.75;;;1.05;;
71639;SDS011;60912;48.968;10.124;2022-10-22T09:10:14;3.30;;;0.93;;
71639;SDS011;60912;48.968;10.124;2022-10-22T09:12:44;3.88;;;0.93;;
71639;SDS011;60912;48.968;10.124;2022-10-22T09:15:13;2.73;;;0.77;;
71639;SDS011;60912;48.968;10.124;2022-10-22T09:18:02;1.83;;;0.60;;
71639;SDS011;60912;48.968;10.124;2022-10-22T09:25:42;3.92;;;0.77;;
71639;SDS011;60912;48.968;10.124;2022-10-22T09:28:09;3.55;;;0.98;;
71639;SDS011;60912;48.968;10.124;2022-10-22T09:30:35;3.87;;;1.20;;
71639;SDS011;60912;48.968;10.124;2022-10-22T09:33:10;3.38;;;0.80;;
71639;SDS011;60912;48.968;10.124;2022-10-22T09:35:46;4.30;;;0.93;;
71639;SDS011;60912;48.968;10.124;2022-10-22T09:38:18;2.92;;;0.90;;
71639;SDS011;60912;48.968;10.124;2022-10-22T09:40:47;4.43;;;0.70;;
71639;SDS011;60912;48.968;10.124;2022-10-22T09:43:14;2.83;;;0.88;;
71639;SDS011;60912;48.968;10.124;2022-10-22T09:45:40;2.95;;;0.80;;
71639;SDS011;60912;48.968;10.124;2022-10-22T09:48:11;2.95;;;0.90;;
71639;SDS011;60912;48.968;10.124;2022-10-22T09:50:48;2.15;;;0.90;;
71639;SDS011;60912;48.968;10.124;2022-10-22T09:53:20;2.50;;;0.80;;
71639;SDS011;60912;48.968;10.124;2022-10-22T09:56:07;4.65;;;0.80;;
71639;SDS011;60912;48.968;10.124;2022-10-22T09:58:44;3.30;;;1.42;;
71639;SDS011;60912;48.968;10.124;2022-10-22T10:01:18;2.88;;;1.20;;
71639;SDS011;60912;48.968;10.124;2022-10-22T10:03:52;3.63;;;0.90;;
71639;SDS011;60912;48.968;10.124;2022-10-22T10:06:18;4.63;;;0.97;;
71639;SDS011;60912;48.968;10.124;2022-10-22T10:08:45;3.00;;;0.98;;
71639;SDS011;60912;48.968;10.124;2022-10-22T10:14:20;5.77;;;1.00;;
71639;SDS011;60912;48.968;10.124;2022-10-22T10:17:00;4.57;;;1.08;;
71639;SDS011;60912;48.968;10.124;2022-10-22T10:25:10;3.05;;;0.93;;
71639;SDS011;60912;48.968;10.124;2022-10-22T10:31:14;4.25;;;1.20;;
71639;SDS011;60912;48.968;10.124;2022-10-22T10:47:21;5.47;;;1.17;;
71639;SDS011;60912;48.968;10.124;2022-10-22T10:49:50;2.30;;;0.95;;
71639;SDS011;60912;48.968;10.124;2022-10-22T11:00:13;2.80;;;0.97;;
71639;SDS011;60912;48.968;10.124;2022-10-22T11:07:57;2.45;;;0.82;;
71639;SDS011;60912;48.968;10.124;2022-10-22T11:11:01;1.92;;;0.80;;
71639;SDS011;60912;48.968;10.124;2022-10-22T11:13:30;3.30;;;0.90;;
71639;SDS011;60912;48.968;10.124;2022-10-22T11:18:41;2.50;;;0.80;;
71639;SDS011;60912;48.968;10.124;2022-10-22T11:21:33;3.05;;;0.70;;
71639;SDS011;60912;48.968;10.124;2022-10-22T11:24:29;3.10;;;0.60;;
71639;SDS011;60912;48.968;10.124;2022-10-22T11:27:02;1.38;;;0.50;;
71639;SDS011;60912;48.968;10.124;2022-10-22T11:29:39;1.63;;;0.80;;
71639;SDS011;60912;48.968;10.124;2022-10-22T11:32:17;1.60;;;0.70;;
71639;SDS011;60912;48.968;10.124;2022-10-22T11:34:52;2.33;;;0.60;;
71639;SDS011;60912;48.968;10.124;2022-10-22T11:37:20;4.13;;;0.70;;
71639;SDS011;60912;48.968;10.124;2022-10-22T11:39:49;3.30;;;1.17;;
71639;SDS011;60912;48.968;10.124;2022-10-22T11:42:29;4.60;;;0.90;;
71639;SDS011;60912;48.968;10.124;2022-10-22T11:44:58;1.33;;;0.60;;
71639;SDS011;60912;48.968;10.124;2022-10-22T11:47:58;2.28;;;0.80;;
71639;SDS011;60912;48.968;10.124;2022-10-22T11:50:53;2.28;;;0.80;;
71639;SDS011;60912;48.968;10.124;2022-10-22T11:55:50;5.27;;;0.90;;
71639;SDS011;60912;48.968;10.124;2022-10-22T12:00:52;3.42;;;0.60;;
71639;SDS011;60912;48.968;10.124;2022-10-22T12:03:23;3.08;;;0.80;;
71639;SDS011;60912;48.968;10.124;2022-10-22T12:06:02;3.08;;;0.90;;
71639;SDS011;60912;48.968;10.124;2022-10-22T12:16:57;2.13;;;0.90;;
71639;SDS011;60912;48.968;10.124;2022-10-22T12:19:45;18.02;;;7.88;;
71639;SDS011;60912;48.968;10.124;2022-10-22T12:22:18;52.17;;;18.73;;
71639;SDS011;60912;48.968;10.124;2022-10-22T12:24:48;34.80;;;10.55;;
71639;SDS011;60912;48.968;10.124;2022-10-22T12:29:47;82.13;;;26.52;;
71639;SDS011;60912;48.968;10.124;2022-10-22T12:32:14;27.65;;;9.02;;
71639;SDS011;60912;48.968;10.124;2022-10-22T12:34:47;6.63;;;2.33;;
71639;SDS011;60912;48.968;10.124;2022-10-22T12:37:14;3.70;;;1.02;;
71639;SDS011;60912;48.968;10.124;2022-10-22T12:39:40;6.47;;;1.10;;
71639;SDS011;60912;48.968;10.124;2022-10-22T12:42:07;3.72;;;0.68;;
71639;SDS011;60912;48.968;10.124;2022-10-22T12:44:37;3.90;;;1.00;;
71639;SDS011;60912;48.968;10.124;2022-10-22T12:47:02;4.40;;;0.68;;
71639;SDS011;60912;48.968;10.124;2022-10-22T12:49:34;3.43;;;0.60;;
71639;SDS011;60912;48.968;10.124;2022-10-22T12:52:04;3.55;;;0.70;;
71639;SDS011;60912;48.968;10.124;2022-10-22T12:54:32;3.95;;;0.80;;
71639;SDS011;60912;48.968;10.124;2022-10-22T12:56:59;4.63;;;0.73;;
71639;SDS011;60912;48.968;10.124;2022-10-22T13:01:51;4.77;;;0.73;;
71639;SDS011;60912;48.968;10.124;2022-10-22T13:06:45;8.82;;;0.80;;
71639;SDS011;60912;48.968;10.124;2022-10-22T13:14:29;5.85;;;1.00;;
71639;SDS011;60912;48.968;10.124;2022-10-22T13:25:22;2.70;;;0.70;;
71639;SDS011;60912;48.968;10.124;2022-10-22T13:30:38;1.83;;;0.50;;
71639;SDS011;60912;48.968;10.124;2022-10-22T13:36:01;4.25;;;0.90;;
71639;SDS011;60912;48.968;10.124;2022-10-22T13:38:27;3.22;;;0.90;;
71639;SDS011;60912;48.968;10.124;2022-10-22T13:40:53;4.32;;;0.80;;
71639;SDS011;60912;48.968;10.124;2022-10-22T13:43:19;3.57;;;0.80;;
71639;SDS011;60912;48.968;10.124;2022-10-22T13:45:45;8.05;;;0.80;;
71639;SDS011;60912;48.968;10.124;2022-10-22T13:48:16;2.57;;;0.67;;
71639;SDS011;60912;48.968;10.124;2022-10-22T13:50:45;5.05;;;0.70;;
71639;SDS011;60912;48.968;10.124;2022-10-22T13:53:15;2.75;;;0.70;;
71639;SDS011;60912;48.968;10.124;2022-10-22T13:55:51;4.47;;;0.70;;
71639;SDS011;60912;48.968;10.124;2022-10-22T13:58:21;2.28;;;0.68;;
71639;SDS011;60912;48.968;10.124;2022-10-22T14:00:54;4.63;;;0.60;;
71639;SDS011;60912;48.968;10.124;2022-10-22T14:03:26;4.13;;;0.80;;
71639;SDS011;60912;48.968;10.124;2022-10-22T14:05:53;4.13;;;0.70;;
71639;SDS011;60912;48.968;10.124;2022-10-22T14:08:20;6.67;;;0.70;;
71639;SDS011;60912;48.968;10.124;2022-10-22T14:10:47;2.63;;;0.70;;
71639;SDS011;60912;48.968;10.124;2022-10-22T14:13:13;4.15;;;0.65;;
71639;SDS011;60912;48.968;10.124;2022-10-22T14:15:40;11.52;;;0.73;;
71639;SDS011;60912;48.968;10.124;2022-10-22T14:18:07;2.50;;;0.70;;
71639;SDS011;60912;48.968;10.124;2022-10-22T14:20:36;5.72;;;0.80;;
71639;SDS011;60912;48.968;10.124;2022-10-22T14:23:12;4.47;;;0.70;;
71639;SDS011;60912;48.968;10.124;2022-10-22T14:25:41;4.82;;;0.80;;
71639;SDS011;60912;48.968;10.124;2022-10-22T14:28:07;5.23;;;0.77;;
71639;SDS011;60912;48.968;10.124;2022-10-22T14:30:34;5.55;;;0.80;;
71639;SDS011;60912;48.968;10.124;2022-10-22T14:33:00;2.40;;;0.53;;
71639;SDS011;60912;48.968;10.124;2022-10-22T14:35:25;4.93;;;0.60;;
71639;SDS011;60912;48.968;10.124;2022-10-22T14:37:51;2.87;;;0.73;;
71639;SDS011;60912;48.968;10.124;2022-10-22T14:40:17;4.57;;;0.70;;
71639;SDS011;60912;48.968;10.124;2022-10-22T14:42:45;4.47;;;0.70;;
71639;SDS011;60912;48.968;10.124;2022-10-22T14:45:18;4.93;;;0.80;;
71639;SDS011;60912;48.968;10.124;2022-10-22T14:47:49;3.00;;;0.67;;
71639;SDS011;60912;48.968;10.124;2022-10-22T14:50:15;4.60;;;0.98;;
71639;SDS011;60912;48.968;10.124;2022-10-22T14:52:41;4.65;;;0.98;;
71639;SDS011;60912;48.968;10.124;2022-10-22T14:55:08;4.93;;;0.82;;
71639;SDS011;60912;48.968;10.124;2022-10-22T14:57:37;5.87;;;1.20;;
71639;SDS011;60912;48.968;10.124;2022-10-22T15:00:04;4.18;;;1.00;;
71639;SDS011;60912;48.968;10.124;2022-10-22T15:02:31;3.22;;;0.90;;
71639;SDS011;60912;48.968;10.124;2022-10-22T15:04:56;3.00;;;1.00;;
71639;SDS011;60912;48.968;10.124;2022-10-22T15:07:22;5.37;;;1.13;;
71639;SDS011;60912;48.968;10.124;2022-10-22T15:09:48;4.65;;;1.30;;
71639;SDS011;60912;48.968;10.124;2022-10-22T15:12:14;2.75;;;0.90;;
71639;SDS011;60912;48.968;10.124;2022-10-22T15:14:40;4.00;;;1.00;;
71639;SDS011;60912;48.968;10.124;2022-10-22T15:17:05;6.90;;;1.20;;
71639;SDS011;60912;48.968;10.124;2022-10-22T15:19:31;3.13;;;0.90;;
71639;SDS011;60912;48.968;10.124;2022-10-22T15:21:56;5.40;;;1.37;;
71639;SDS011;60912;48.968;10.124;2022-10-22T15:24:21;8.07;;;2.93;;
71639;SDS011;60912;48.968;10.124;2022-10-22T15:26:47;8.10;;;3.37;;
71639;SDS011;60912;48.968;10.124;2022-10-22T15:29:12;6.97;;;2.83;;
71639;SDS011;60912;48.968;10.124;2022-10-22T15:31:56;9.30;;;2.80;;
71639;SDS011;60912;48.968;10.124;2022-10-22T15:34:32;6.00;;;1.93;;
71639;SDS011;60912;48.968;10.124;2022-10-22T15:36:59;7.20;;;2.10;;
71639;SDS011;60912;48.968;10.124;2022-10-22T15:39:27;8.13;;;1.95;;
71639;SDS011;60912;48.968;10.124;2022-10-22T15:41:53;6.15;;;1.60;;
71639;SDS011;60912;48.968;10.124;2022-10-22T15:44:23;7.13;;;1.35;;
71639;SDS011;60912;48.968;10.124;2022-10-22T15:46:50;7.87;;;1.33;;
71639;SDS011;60912;48.968;10.124;2022-10-22T15:49:17;6.10;;;1.20;;
71639;SDS011;60912;48.968;10.124;2022-10-22T15:51:43;3.92;;;0.95;;
71639;SDS011;60912;48.968;10.124;2022-10-22T15:54:16;5.43;;;1.10;;
71639;SDS011;60912;48.968;10.124;2022-10-22T15:56:44;5.97;;;1.10;;
71639;SDS011;60912;48.968;10.124;2022-10-22T15:59:11;3.83;;;0.70;;
71639;SDS011;60912;48.968;10.124;2022-10-22T16:01:37;2.53;;;0.93;;
71639;SDS011;60912;48.968;10.124;2022-10-22T16:04:03;5.38;;;1.00;;
71639;SDS011;60912;48.968;10.124;2022-10-22T16:09:06;9.30;;;1.10;;
71639;SDS011;60912;48.968;10.124;2022-10-22T16:11:33;14.53;;;1.57;;
71639;SDS011;60912;48.968;10.124;2022-10-22T16:13:59;6.05;;;1.65;;
71639;SDS011;60912;48.968;10.124;2022-10-22T16:16:26;5.85;;;2.00;;
71639;SDS011;60912;48.968;10.124;2022-10-22T16:18:54;14.68;;;1.77;;
71639;SDS011;60912;48.968;10.124;2022-10-22T16:21:20;9.37;;;1.30;;
71639;SDS011;60912;48.968;10.124;2022-10-22T16:23:46;6.28;;;1.10;;
71639;SDS011;60912;48.968;10.124;2022-10-22T16:26:12;6.78;;;1.15;;
71639;SDS011;60912;48.968;10.124;2022-10-22T16:28:39;5.75;;;1.20;;
71639;SDS011;60912;48.968;10.124;2022-10-22T16:31:07;5.93;;;1.17;;
71639;SDS011;60912;48.968;10.124;2022-10-22T16:33:34;7.17;;;1.27;;
71639;SDS011;60912;48.968;10.124;2022-10-22T16:36:00;12.80;;;1.25;;
71639;SDS011;60912;48.968;10.124;2022-10-22T16:38:26;4.47;;;0.90;;
71639;SDS011;60912;48.968;10.124;2022-10-22T16:40:52;11.93;;;1.40;;
71639;SDS011;60912;48.968;10.124;2022-10-22T16:43:17;7.28;;;0.90;;
71639;SDS011;60912;48.968;10.124;2022-10-22T16:45:46;7.07;;;1.00;;
71639;SDS011;60912;48.968;10.124;2022-10-22T16:48:15;7.95;;;1.00;;
71639;SDS011;60912;48.968;10.124;2022-10-22T16:50:41;7.07;;;1.00;;
71639;SDS011;60912;48.968;10.124;2022-10-22T16:53:07;11.10;;;1.80;;
71639;SDS011;60912;48.968;10.124;2022-10-22T16:55:36;5.20;;;1.08;;
71639;SDS011;60912;48.968;10.124;2022-10-22T16:58:03;8.37;;;0.80;;
71639;SDS011;60912;48.968;10.124;2022-10-22T17:00:29;8.70;;;1.05;;
71639;SDS011;60912;48.968;10.124;2022-10-22T17:02:55;4.80;;;1.10;;
71639;SDS011;60912;48.968;10.124;2022-10-22T17:05:20;7.10;;;1.17;;